createdAt,value
2019-03-26T00:01:43.950Z,5.67
2019-03-26T00:04:13.254Z,6.13
2019-03-26T00:06:42.645Z,5.80
2019-03-26T00:09:12.277Z,6.47
2019-03-26T00:11:41.587Z,6.50
2019-03-26T00:14:10.886Z,6.13
2019-03-26T00:16:40.199Z,7.10
2019-03-26T00:19:09.574Z,6.87
2019-03-26T00:21:38.967Z,6.37
2019-03-26T00:24:08.270Z,6.23
2019-03-26T00:26:37.582Z,5.40
2019-03-26T00:29:06.882Z,5.50
2019-03-26T00:31:36.202Z,6.23
2019-03-26T00:34:18.286Z,7.13
2019-03-26T00:36:36.683Z,6.83
2019-03-26T00:39:07.427Z,6.70
2019-03-26T00:41:36.810Z,8.40
2019-03-26T00:44:06.206Z,9.20
2019-03-26T00:46:35.643Z,9.60
2019-03-26T00:49:05.020Z,8.70
2019-03-26T00:51:34.339Z,8.37
2019-03-26T00:54:03.719Z,8.87
2019-03-26T00:56:33.016Z,9.23
2019-03-26T00:59:02.316Z,8.60
2019-03-26T01:01:31.630Z,9.23
2019-03-26T01:04:01.218Z,9.43
2019-03-26T01:06:31.258Z,9.30
2019-03-26T01:09:00.663Z,10.43
2019-03-26T01:11:29.966Z,10.40
2019-03-26T01:13:59.269Z,9.40
2019-03-26T01:16:28.572Z,8.67
2019-03-26T01:18:57.875Z,8.33
2019-03-26T01:21:27.174Z,8.27
2019-03-26T01:23:56.492Z,9.17
2019-03-26T01:26:25.784Z,8.27
2019-03-26T01:28:55.090Z,8.20
2019-03-26T01:31:24.390Z,7.90
2019-03-26T01:33:53.694Z,9.80
2019-03-26T01:36:22.998Z,9.53
2019-03-26T01:38:52.648Z,9.80
2019-03-26T01:41:21.966Z,9.83
2019-03-26T01:43:51.374Z,9.20
2019-03-26T01:46:20.786Z,9.00
2019-03-26T01:48:50.095Z,9.53
2019-03-26T01:51:19.387Z,8.63
2019-03-26T01:53:48.705Z,8.23
2019-03-26T01:56:17.987Z,7.83
2019-03-26T01:58:47.293Z,8.43
2019-03-26T02:01:16.603Z,9.47
2019-03-26T02:03:46.261Z,8.33
2019-03-26T02:06:15.631Z,8.90
2019-03-26T02:08:44.942Z,8.07
2019-03-26T02:11:14.258Z,7.50
2019-03-26T02:13:43.950Z,7.30
2019-03-26T02:16:13.241Z,8.17
2019-03-26T02:18:42.550Z,8.17
2019-03-26T02:21:11.853Z,8.33
2019-03-26T02:23:41.161Z,8.10
2019-03-26T02:26:10.940Z,8.50
2019-03-26T02:28:40.254Z,7.77
2019-03-26T02:31:09.611Z,7.30
2019-03-26T02:33:38.932Z,7.53
2019-03-26T02:36:08.313Z,7.63
2019-03-26T02:38:37.623Z,7.80
2019-03-26T02:41:07.008Z,7.80
2019-03-26T02:43:36.399Z,7.80
2019-03-26T02:46:05.855Z,8.10
2019-03-26T02:48:35.148Z,7.50
2019-03-26T02:51:04.510Z,7.47
2019-03-26T02:53:33.810Z,7.13
2019-03-26T02:56:03.113Z,6.80
2019-03-26T02:58:32.410Z,6.47
2019-03-26T03:01:01.803Z,6.50
2019-03-26T03:03:31.165Z,6.37
2019-03-26T03:06:00.603Z,6.73
2019-03-26T03:08:30.008Z,7.40
2019-03-26T03:10:59.398Z,6.80
2019-03-26T03:13:28.683Z,6.10
2019-03-26T03:15:58.087Z,6.27
2019-03-26T03:18:27.379Z,6.57
2019-03-26T03:20:57.014Z,6.80
2019-03-26T03:23:26.323Z,6.70
2019-03-26T03:25:55.716Z,6.17
2019-03-26T03:28:25.001Z,7.03
2019-03-26T03:30:54.325Z,7.10
2019-03-26T03:33:23.679Z,6.63
2019-03-26T03:35:53.394Z,7.17
2019-03-26T03:38:22.703Z,7.30
2019-03-26T03:40:52.038Z,7.30
2019-03-26T03:43:21.402Z,7.10
2019-03-26T03:45:52.058Z,6.67
2019-03-26T03:48:22.403Z,7.43
2019-03-26T03:50:53.798Z,7.47
2019-03-26T03:53:23.745Z,7.97
2019-03-26T03:55:56.259Z,6.97
2019-03-26T03:58:27.947Z,8.80
2019-03-26T04:00:57.363Z,9.27
2019-03-26T04:03:26.815Z,7.83
2019-03-26T04:06:08.218Z,7.93
2019-03-26T04:08:27.424Z,7.83
2019-03-26T04:10:56.727Z,9.27
2019-03-26T04:13:26.023Z,8.33
2019-03-26T04:15:55.360Z,9.40
2019-03-26T04:18:24.664Z,8.67
2019-03-26T04:20:53.972Z,8.40
2019-03-26T04:23:23.279Z,9.00
2019-03-26T04:25:52.708Z,9.57
2019-03-26T04:28:22.336Z,10.83
2019-03-26T04:30:51.666Z,11.40
2019-03-26T04:33:21.079Z,11.20
2019-03-26T04:35:50.447Z,11.03
2019-03-26T04:38:19.749Z,10.40
2019-03-26T04:40:49.122Z,11.70
2019-03-26T04:43:19.131Z,13.13
2019-03-26T04:45:49.667Z,11.80
2019-03-26T04:48:19.714Z,11.57
2019-03-26T04:50:49.122Z,12.87
2019-03-26T04:53:18.504Z,13.03
2019-03-26T04:55:47.807Z,12.80
2019-03-26T04:58:17.115Z,12.57
2019-03-26T05:00:46.551Z,11.97
2019-03-26T05:03:15.862Z,11.83
2019-03-26T05:05:45.511Z,12.73
2019-03-26T05:08:14.922Z,12.10
2019-03-26T05:10:44.222Z,12.93
2019-03-26T05:13:13.610Z,12.23
2019-03-26T05:15:43.032Z,12.73
2019-03-26T05:18:12.430Z,11.40
2019-03-26T05:20:41.867Z,10.37
2019-03-26T05:23:11.863Z,10.80
2019-03-26T05:25:41.150Z,10.97
2019-03-26T05:28:10.552Z,10.00
2019-03-26T05:30:39.826Z,10.53
2019-03-26T05:33:14.998Z,11.90
2019-03-26T05:35:44.303Z,10.47
2019-03-26T05:38:13.615Z,11.00
2019-03-26T05:40:42.906Z,10.53
2019-03-26T05:43:12.215Z,11.80
2019-03-26T05:45:41.606Z,14.17
2019-03-26T05:48:10.913Z,64.10
2019-03-26T05:50:40.597Z,14.70
2019-03-26T05:53:09.943Z,16.53
2019-03-26T05:55:39.331Z,34.97
2019-03-26T05:58:08.714Z,17.30
2019-03-26T06:00:38.109Z,15.87
2019-03-26T06:03:07.721Z,14.10
2019-03-26T06:05:37.311Z,15.43
2019-03-26T06:08:06.615Z,14.37
2019-03-26T06:10:36.129Z,13.67
2019-03-26T06:13:06.054Z,13.47
2019-03-26T06:15:35.355Z,12.43
2019-03-26T06:18:04.752Z,14.67
2019-03-26T06:20:34.044Z,13.67
2019-03-26T06:23:03.347Z,13.97
2019-03-26T06:25:32.641Z,14.13
2019-03-26T06:28:01.929Z,12.50
2019-03-26T06:30:31.221Z,12.37
2019-03-26T06:33:00.842Z,13.37
2019-03-26T06:35:30.154Z,13.50
2019-03-26T06:37:59.446Z,12.47
2019-03-26T06:40:29.166Z,12.40
2019-03-26T06:42:58.628Z,12.10
2019-03-26T06:45:28.902Z,12.17
2019-03-26T06:47:58.219Z,12.73
2019-03-26T06:50:27.847Z,13.27
2019-03-26T06:52:57.422Z,14.23
2019-03-26T06:55:26.802Z,12.80
2019-03-26T06:57:56.251Z,12.23
2019-03-26T07:00:32.774Z,12.53
2019-03-26T07:03:03.157Z,11.57
2019-03-26T07:05:32.638Z,11.67
2019-03-26T07:08:02.358Z,12.40
2019-03-26T07:10:31.818Z,12.10
2019-03-26T07:13:01.106Z,11.27
2019-03-26T07:15:30.522Z,11.27
2019-03-26T07:17:59.958Z,11.13
2019-03-26T07:20:29.264Z,11.60
2019-03-26T07:22:58.560Z,11.40
2019-03-26T07:25:27.938Z,11.03
2019-03-26T07:27:57.302Z,10.30
2019-03-26T07:30:43.775Z,11.10
2019-03-26T07:33:13.226Z,10.00
2019-03-26T07:35:42.908Z,10.27
2019-03-26T07:38:12.270Z,10.07
2019-03-26T07:40:41.651Z,10.67
2019-03-26T07:43:11.017Z,9.87
2019-03-26T07:45:40.701Z,9.87
2019-03-26T07:48:10.087Z,8.93
2019-03-26T07:50:39.771Z,8.20
2019-03-26T07:53:09.466Z,9.63
2019-03-26T07:55:38.905Z,8.93
2019-03-26T07:58:08.263Z,9.67
2019-03-26T08:00:39.087Z,8.90
2019-03-26T08:03:08.629Z,8.50
2019-03-26T08:05:38.093Z,8.67
2019-03-26T08:08:08.402Z,8.47
2019-03-26T08:10:37.823Z,8.33
2019-03-26T08:13:07.098Z,9.00
2019-03-26T08:15:36.355Z,9.17
2019-03-26T08:18:05.733Z,8.33
2019-03-26T08:20:35.458Z,9.00
2019-03-26T08:23:04.834Z,7.80
2019-03-26T08:25:34.187Z,8.57
2019-03-26T08:28:05.138Z,8.23
2019-03-26T08:30:34.782Z,8.87
2019-03-26T08:33:04.189Z,7.50
2019-03-26T08:35:33.571Z,8.20
2019-03-26T08:38:12.523Z,7.10
2019-03-26T08:40:34.141Z,7.47
2019-03-26T08:43:03.446Z,7.27
2019-03-26T08:45:32.738Z,7.00
2019-03-26T08:48:02.038Z,7.90
2019-03-26T08:50:31.323Z,7.33
2019-03-26T08:53:00.614Z,7.03
2019-03-26T08:55:29.898Z,7.93
2019-03-26T08:57:59.231Z,6.40
2019-03-26T09:00:31.801Z,6.57
2019-03-26T09:02:59.986Z,6.13
2019-03-26T09:05:29.265Z,6.40
2019-03-26T09:07:58.566Z,7.33
2019-03-26T09:10:28.045Z,8.23
2019-03-26T09:12:57.394Z,6.60
2019-03-26T09:15:26.720Z,6.87
2019-03-26T09:17:56.348Z,6.00
2019-03-26T09:20:25.640Z,6.13
2019-03-26T09:22:55.231Z,6.57
2019-03-26T09:25:25.138Z,5.93
2019-03-26T09:27:54.484Z,6.20
2019-03-26T09:30:23.804Z,6.27
2019-03-26T09:32:53.191Z,6.40
2019-03-26T09:35:22.894Z,5.43
2019-03-26T09:37:52.466Z,5.20
2019-03-26T09:40:21.870Z,6.03
2019-03-26T09:42:51.470Z,5.20
2019-03-26T09:45:20.853Z,5.83
2019-03-26T09:47:50.153Z,5.93
2019-03-26T09:50:31.449Z,6.13
2019-03-26T09:53:01.661Z,6.20
2019-03-26T09:55:30.983Z,5.73
2019-03-26T09:58:00.277Z,5.50
2019-03-26T10:00:29.623Z,6.63
2019-03-26T10:02:59.144Z,5.53
2019-03-26T10:05:28.563Z,6.03
2019-03-26T10:07:58.305Z,6.97
2019-03-26T10:10:27.631Z,8.30
2019-03-26T10:12:56.914Z,7.97
2019-03-26T10:15:26.218Z,8.30
2019-03-26T10:17:56.034Z,8.07
2019-03-26T10:20:25.594Z,9.37
2019-03-26T10:22:54.942Z,9.93
2019-03-26T10:25:24.566Z,9.07
2019-03-26T10:27:53.858Z,8.37
2019-03-26T10:30:33.426Z,9.50
2019-03-26T10:33:02.991Z,8.67
2019-03-26T10:35:32.323Z,7.93
2019-03-26T10:38:01.768Z,7.37
2019-03-26T10:40:32.387Z,8.10
2019-03-26T10:43:02.146Z,7.07
2019-03-26T10:45:31.605Z,8.57
2019-03-26T10:48:01.334Z,7.60
2019-03-26T10:50:30.794Z,10.70
2019-03-26T10:53:00.301Z,13.23
2019-03-26T10:55:29.944Z,7.50
2019-03-26T10:57:59.235Z,12.63
2019-03-26T11:00:29.386Z,7.17
2019-03-26T11:02:58.669Z,6.50
2019-03-26T11:05:28.045Z,6.30
2019-03-26T11:07:57.586Z,8.83
2019-03-26T11:10:26.999Z,7.90
2019-03-26T11:12:56.378Z,7.23
2019-03-26T11:15:25.779Z,13.77
2019-03-26T11:17:55.062Z,9.60
2019-03-26T11:20:24.962Z,6.40
2019-03-26T11:23:01.296Z,24.07
2019-03-26T11:25:30.823Z,9.67
2019-03-26T11:28:00.287Z,5.10
2019-03-26T11:30:29.759Z,7.50
2019-03-26T11:32:59.055Z,18.37
2019-03-26T11:35:28.379Z,6.10
2019-03-26T11:37:57.679Z,6.73
2019-03-26T11:40:27.012Z,12.20
2019-03-26T11:42:56.338Z,4.57
2019-03-26T11:45:25.723Z,4.23
2019-03-26T11:47:55.030Z,4.53
2019-03-26T11:50:24.526Z,5.25
2019-03-26T11:52:53.838Z,4.53
2019-03-26T11:55:23.583Z,5.25
2019-03-26T11:57:52.889Z,4.40
2019-03-26T12:00:27.722Z,4.72
2019-03-26T12:02:57.051Z,4.87
2019-03-26T12:05:26.450Z,4.15
2019-03-26T12:07:55.814Z,3.85
2019-03-26T12:10:25.223Z,4.72
2019-03-26T12:12:54.510Z,5.70
2019-03-26T12:15:23.824Z,5.37
2019-03-26T12:17:53.155Z,4.87
2019-03-26T12:20:22.460Z,5.20
2019-03-26T12:22:51.859Z,4.67
2019-03-26T12:25:21.159Z,4.42
2019-03-26T12:27:50.464Z,6.40
2019-03-26T12:30:32.667Z,6.12
2019-03-26T12:33:01.989Z,6.00
2019-03-26T12:35:31.855Z,7.00
2019-03-26T12:38:03.123Z,6.57
2019-03-26T12:40:32.433Z,7.27
2019-03-26T12:43:01.750Z,11.07
2019-03-26T12:45:31.054Z,8.60
2019-03-26T12:48:00.371Z,10.13
2019-03-26T12:50:32.131Z,8.47
2019-03-26T12:53:00.776Z,13.80
2019-03-26T12:55:30.162Z,10.83
2019-03-26T12:57:59.462Z,16.10
2019-03-26T13:00:33.124Z,12.57
2019-03-26T13:03:02.533Z,11.57
2019-03-26T13:05:31.833Z,19.63
2019-03-26T13:08:01.163Z,11.70
2019-03-26T13:10:30.467Z,27.83
2019-03-26T13:12:59.803Z,38.17
2019-03-26T13:15:29.250Z,9.97
2019-03-26T13:17:58.562Z,9.23
2019-03-26T13:20:27.970Z,52.10
2019-03-26T13:22:57.359Z,18.93
2019-03-26T13:25:26.766Z,17.60
2019-03-26T13:27:56.157Z,81.93
2019-03-26T13:30:25.550Z,73.10
2019-03-26T13:32:55.210Z,21.37
2019-03-26T13:35:24.548Z,61.60
2019-03-26T13:37:53.855Z,49.13
2019-03-26T13:40:27.430Z,8.50
2019-03-26T13:42:54.669Z,8.73
2019-03-26T13:45:24.058Z,8.10
2019-03-26T13:47:53.758Z,14.67
2019-03-26T13:50:23.140Z,7.17
2019-03-26T13:52:52.544Z,11.70
2019-03-26T13:55:21.942Z,14.90
2019-03-26T13:57:51.282Z,19.07
2019-03-26T14:00:38.046Z,13.27
2019-03-26T14:03:07.660Z,31.52
2019-03-26T14:05:37.063Z,9.23
2019-03-26T14:08:06.539Z,9.77
2019-03-26T14:10:41.272Z,5.90
2019-03-26T14:13:07.145Z,8.27
2019-03-26T14:15:36.521Z,8.13
2019-03-26T14:18:06.220Z,8.67
2019-03-26T14:20:35.532Z,7.40
2019-03-26T14:23:04.998Z,8.00
2019-03-26T14:25:34.459Z,7.53
2019-03-26T14:28:04.023Z,9.57
2019-03-26T14:30:41.291Z,18.03
2019-03-26T14:33:11.104Z,18.93
2019-03-26T14:35:40.561Z,7.60
2019-03-26T14:38:10.222Z,5.33
2019-03-26T14:40:39.625Z,5.73
2019-03-26T14:43:09.158Z,8.80
2019-03-26T14:45:38.459Z,10.77
2019-03-26T14:48:07.944Z,32.83
2019-03-26T14:50:37.626Z,9.67
2019-03-26T14:53:07.312Z,13.33
2019-03-26T14:55:36.618Z,13.77
2019-03-26T14:58:06.132Z,8.93
2019-03-26T15:00:35.546Z,7.97
2019-03-26T15:03:05.019Z,6.97
2019-03-26T15:05:34.340Z,9.83
2019-03-26T15:08:03.751Z,121.30
2019-03-26T15:10:33.167Z,27.17
2019-03-26T15:13:02.588Z,73.77
2019-03-26T15:15:32.207Z,6.73
2019-03-26T15:18:01.600Z,7.10
2019-03-26T15:20:31.427Z,9.20
2019-03-26T15:23:00.738Z,8.13
2019-03-26T15:25:30.082Z,9.90
2019-03-26T15:27:59.598Z,9.43
2019-03-26T15:30:28.991Z,10.13
2019-03-26T15:32:58.394Z,9.70
2019-03-26T15:35:27.797Z,12.27
2019-03-26T15:37:57.256Z,10.33
2019-03-26T15:40:26.593Z,13.03
2019-03-26T15:42:56.004Z,12.67
2019-03-26T15:45:25.404Z,15.97
2019-03-26T15:47:54.722Z,11.10
2019-03-26T15:50:38.572Z,10.40
2019-03-26T15:53:08.046Z,13.13
2019-03-26T15:55:37.367Z,9.93
2019-03-26T15:58:06.851Z,15.10
2019-03-26T16:00:36.209Z,10.27
2019-03-26T16:03:05.702Z,11.70
2019-03-26T16:05:35.346Z,6.80
2019-03-26T16:08:04.755Z,10.70
2019-03-26T16:10:34.095Z,13.57
2019-03-26T16:13:03.478Z,7.77
2019-03-26T16:15:43.606Z,7.23
2019-03-26T16:18:03.913Z,7.93
2019-03-26T16:20:33.242Z,7.63
2019-03-26T16:23:02.547Z,7.57
2019-03-26T16:25:31.867Z,8.13
2019-03-26T16:28:01.186Z,10.97
2019-03-26T16:30:31.877Z,12.93
2019-03-26T16:33:01.709Z,14.47
2019-03-26T16:35:31.111Z,22.63
2019-03-26T16:38:00.416Z,19.50
2019-03-26T16:40:29.822Z,11.63
2019-03-26T16:42:59.214Z,6.70
2019-03-26T16:45:28.659Z,8.90
2019-03-26T16:47:57.941Z,8.07
2019-03-26T16:50:27.655Z,7.97
2019-03-26T16:52:57.048Z,8.97
2019-03-26T16:55:26.706Z,8.67
2019-03-26T16:57:56.306Z,8.33
2019-03-26T17:00:35.837Z,6.63
2019-03-26T17:03:05.875Z,6.53
2019-03-26T17:05:35.178Z,8.07
2019-03-26T17:08:04.655Z,7.50
2019-03-26T17:10:34.344Z,6.83
2019-03-26T17:13:03.734Z,10.50
2019-03-26T17:15:33.387Z,11.67
2019-03-26T17:18:02.707Z,12.90
2019-03-26T17:20:32.022Z,14.70
2019-03-26T17:23:01.418Z,15.90
2019-03-26T17:25:30.761Z,9.70
2019-03-26T17:28:00.163Z,9.97
2019-03-26T17:30:29.541Z,35.40
2019-03-26T17:32:58.896Z,23.60
2019-03-26T17:35:28.251Z,37.70
2019-03-26T17:37:59.938Z,26.13
2019-03-26T17:40:29.035Z,41.17
2019-03-26T17:42:58.558Z,33.20
2019-03-26T17:45:27.871Z,24.03
2019-03-26T17:47:57.578Z,27.13
2019-03-26T17:50:26.974Z,18.47
2019-03-26T17:52:56.294Z,35.10
2019-03-26T17:55:25.902Z,25.87
2019-03-26T17:57:55.210Z,18.17
2019-03-26T18:00:37.034Z,26.13
2019-03-26T18:03:06.555Z,20.93
2019-03-26T18:05:35.966Z,24.30
2019-03-26T18:08:05.473Z,19.80
2019-03-26T18:10:35.276Z,28.97
2019-03-26T18:13:04.662Z,34.40
2019-03-26T18:15:34.286Z,37.13
2019-03-26T18:18:03.602Z,23.77
2019-03-26T18:20:33.239Z,35.23
2019-03-26T18:23:02.623Z,48.13
2019-03-26T18:25:32.218Z,37.33
2019-03-26T18:28:01.612Z,52.30
2019-03-26T18:30:30.974Z,49.20
2019-03-26T18:33:00.282Z,45.53
2019-03-26T18:35:29.576Z,27.43
2019-03-26T18:37:58.893Z,23.37
2019-03-26T18:40:28.259Z,29.33
2019-03-26T18:42:57.662Z,22.37
2019-03-26T18:45:27.231Z,24.40
2019-03-26T18:47:56.542Z,24.90
2019-03-26T18:50:25.851Z,50.20
2019-03-26T18:52:55.155Z,52.37
2019-03-26T18:55:25.381Z,35.67
2019-03-26T18:57:54.883Z,24.43
2019-03-26T19:00:32.943Z,21.90
2019-03-26T19:03:02.596Z,15.87
2019-03-26T19:05:31.928Z,15.80
2019-03-26T19:08:01.305Z,16.33
2019-03-26T19:10:31.782Z,15.00
2019-03-26T19:13:01.931Z,17.13
2019-03-26T19:15:31.327Z,16.53
2019-03-26T19:18:01.571Z,43.10
2019-03-26T19:20:30.930Z,77.57
2019-03-26T19:23:00.387Z,101.57
2019-03-26T19:25:29.830Z,47.13
2019-03-26T19:27:59.132Z,43.30
2019-03-26T19:30:28.451Z,112.33
2019-03-26T19:32:58.006Z,30.87
2019-03-26T19:35:27.718Z,24.07
2019-03-26T19:37:57.191Z,22.00
2019-03-26T19:40:26.624Z,18.83
2019-03-26T19:42:55.970Z,18.07
2019-03-26T19:45:25.315Z,20.33
2019-03-26T19:47:54.611Z,19.03
2019-03-26T19:50:25.082Z,18.10
2019-03-26T19:52:54.728Z,16.27
2019-03-26T19:55:24.047Z,16.67
2019-03-26T19:57:53.418Z,16.80
2019-03-26T20:00:26.639Z,18.30
2019-03-26T20:02:54.801Z,16.47
2019-03-26T20:05:24.111Z,16.90
2019-03-26T20:07:53.490Z,16.67
2019-03-26T20:10:23.347Z,15.67
2019-03-26T20:12:52.763Z,16.07
2019-03-26T20:15:22.343Z,63.43
2019-03-26T20:17:51.715Z,35.67
2019-03-26T20:20:21.287Z,26.87
2019-03-26T20:22:50.608Z,16.00
2019-03-26T20:25:19.994Z,16.37
2019-03-26T20:27:49.286Z,15.80
2019-03-26T20:30:19.294Z,16.47
2019-03-26T20:32:48.630Z,15.47
2019-03-26T20:35:19.480Z,16.40
2019-03-26T20:37:49.214Z,15.60
2019-03-26T20:40:18.894Z,16.77
2019-03-26T20:42:48.271Z,15.40
2019-03-26T20:45:18.409Z,15.30
2019-03-26T20:47:47.707Z,15.73
2019-03-26T20:50:17.671Z,14.17
2019-03-26T20:52:47.112Z,16.23
2019-03-26T20:55:19.318Z,17.63
2019-03-26T20:57:48.767Z,25.10
2019-03-26T21:00:33.627Z,16.30
2019-03-26T21:03:02.928Z,30.77
2019-03-26T21:05:32.232Z,29.50
2019-03-26T21:08:01.539Z,26.13
2019-03-26T21:10:30.929Z,32.47
2019-03-26T21:13:00.351Z,48.60
2019-03-26T21:15:29.743Z,73.77
2019-03-26T21:17:59.381Z,48.03
2019-03-26T21:20:30.114Z,76.00
2019-03-26T21:22:59.731Z,52.43
2019-03-26T21:25:29.203Z,38.87
2019-03-26T21:27:58.759Z,38.27
2019-03-26T21:30:28.211Z,24.40
2019-03-26T21:32:57.593Z,19.47
2019-03-26T21:35:28.821Z,17.07
2019-03-26T21:37:58.003Z,15.87
2019-03-26T21:40:27.354Z,31.17
2019-03-26T21:42:56.919Z,16.77
2019-03-26T21:45:34.690Z,14.27
2019-03-26T21:48:04.945Z,25.20
2019-03-26T21:50:34.314Z,22.20
2019-03-26T21:53:03.799Z,51.20
2019-03-26T21:55:33.161Z,33.53
2019-03-26T21:58:02.546Z,25.70
2019-03-26T22:00:32.310Z,33.13
2019-03-26T22:03:01.739Z,19.67
2019-03-26T22:05:31.154Z,17.40
2019-03-26T22:08:00.659Z,19.17
2019-03-26T22:10:29.966Z,24.60
2019-03-26T22:12:59.440Z,16.57
2019-03-26T22:15:28.814Z,35.70
2019-03-26T22:17:58.122Z,17.27
2019-03-26T22:20:27.414Z,28.93
2019-03-26T22:22:56.840Z,29.63
2019-03-26T22:25:26.203Z,14.63
2019-03-26T22:27:55.510Z,15.43
2019-03-26T22:30:24.874Z,14.80
2019-03-26T22:32:54.175Z,17.33
2019-03-26T22:35:23.487Z,14.40
2019-03-26T22:37:53.151Z,14.90
2019-03-26T22:40:22.522Z,15.67
2019-03-26T22:42:51.831Z,15.17
2019-03-26T22:45:21.125Z,14.37
2019-03-26T22:47:50.454Z,15.27
2019-03-26T22:50:19.903Z,15.67
2019-03-26T22:52:49.218Z,15.03
2019-03-26T22:55:18.507Z,15.20
2019-03-26T22:57:49.130Z,16.37
2019-03-26T23:00:19.353Z,15.20
2019-03-26T23:02:48.679Z,16.53
2019-03-26T23:05:18.338Z,15.03
2019-03-26T23:07:47.690Z,15.80
2019-03-26T23:10:18.894Z,15.53
2019-03-26T23:12:48.462Z,14.50
2019-03-26T23:15:22.066Z,15.13
2019-03-26T23:17:51.452Z,15.67
2019-03-26T23:20:21.294Z,16.67
2019-03-26T23:22:50.751Z,16.10
2019-03-26T23:25:20.209Z,17.97
2019-03-26T23:27:49.974Z,15.90
2019-03-26T23:30:19.878Z,14.90
2019-03-26T23:32:49.533Z,16.03
2019-03-26T23:35:19.243Z,15.20
2019-03-26T23:37:48.557Z,16.30
2019-03-26T23:40:17.946Z,15.57
2019-03-26T23:42:47.327Z,15.37
2019-03-26T23:45:16.812Z,14.93
2019-03-26T23:47:46.110Z,15.87
2019-03-26T23:50:15.881Z,14.80
2019-03-26T23:52:45.454Z,15.30
2019-03-26T23:55:14.929Z,13.73
2019-03-26T23:57:44.234Z,14.20
